sensor_id;sensor_type;location;lat;lon;timestamp;pressure;altitude;pressure_sealevel;temperature;humidity
49723;BME280;43484;43.608;1.458;2023-05-10T00:02:23;99948.25;;;13.44;100.00
49723;BME280;43484;43.608;1.458;2023-05-10T00:04:52;99946.41;;;13.37;100.00
49723;BME280;43484;43.608;1.458;2023-05-10T00:07:18;99943.84;;;13.38;100.00
49723;BME280;43484;43.608;1.458;2023-05-10T00:09:45;99932.44;;;13.24;100.00
49723;BME280;43484;43.608;1.458;2023-05-10T00:12:11;99932.53;;;13.29;100.00
49723;BME280;43484;43.608;1.458;2023-05-10T00:14:38;99924.56;;;13.18;100.00
49723;BME280;43484;43.608;1.458;2023-05-10T00:17:04;99917.09;;;13.30;100.00
49723;BME280;43484;43.608;1.458;2023-05-10T00:19:31;99906.59;;;13.20;100.00
49723;BME280;43484;43.608;1.458;2023-05-10T00:21:58;99910.81;;;13.16;100.00
49723;BME280;43484;43.608;1.458;2023-05-10T00:24:24;99909.09;;;13.15;100.00
49723;BME280;43484;43.608;1.458;2023-05-10T00:26:51;99906.50;;;13.14;100.00
49723;BME280;43484;43.608;1.458;2023-05-10T00:29:18;99898.72;;;13.11;100.00
49723;BME280;43484;43.608;1.458;2023-05-10T00:31:45;99891.03;;;13.12;100.00
49723;BME280;43484;43.608;1.458;2023-05-10T00:34:12;99888.25;;;13.03;100.00
49723;BME280;43484;43.608;1.458;2023-05-10T00:36:39;99879.78;;;13.07;100.00
49723;BME280;43484;43.608;1.458;2023-05-10T00:39:05;99871.28;;;13.11;100.00
49723;BME280;43484;43.608;1.458;2023-05-10T00:41:32;99861.88;;;13.13;100.00
49723;BME280;43484;43.608;1.458;2023-05-10T00:43:59;99865.22;;;13.08;100.00
49723;BME280;43484;43.608;1.458;2023-05-10T00:46:25;99858.38;;;13.10;100.00
49723;BME280;43484;43.608;1.458;2023-05-10T00:48:53;99866.06;;;13.08;100.00
49723;BME280;43484;43.608;1.458;2023-05-10T00:51:19;99858.34;;;13.08;100.00
49723;BME280;43484;43.608;1.458;2023-05-10T00:53:48;99863.50;;;13.08;100.00
49723;BME280;43484;43.608;1.458;2023-05-10T00:56:15;99862.59;;;13.06;100.00
49723;BME280;43484;43.608;1.458;2023-05-10T00:58:42;99870.28;;;13.05;100.00
49723;BME280;43484;43.608;1.458;2023-05-10T01:01:09;99867.72;;;13.05;100.00
49723;BME280;43484;43.608;1.458;2023-05-10T01:03:37;99877.84;;;12.99;100.00
49723;BME280;43484;43.608;1.458;2023-05-10T01:06:04;99879.72;;;13.04;100.00
49723;BME280;43484;43.608;1.458;2023-05-10T01:08:30;99883.03;;;13.00;100.00
49723;BME280;43484;43.608;1.458;2023-05-10T01:10:57;99881.41;;;13.02;100.00
49723;BME280;43484;43.608;1.458;2023-05-10T01:13:33;99879.81;;;13.09;100.00
49723;BME280;43484;43.608;1.458;2023-05-10T01:16:01;99879.75;;;13.06;100.00
49723;BME280;43484;43.608;1.458;2023-05-10T01:18:33;99884.78;;;13.01;100.00
49723;BME280;43484;43.608;1.458;2023-05-10T01:21:55;99894.16;;;12.99;100.00
49723;BME280;43484;43.608;1.458;2023-05-10T01:27:03;99885.34;;;12.88;100.00
49723;BME280;43484;43.608;1.458;2023-05-10T01:32:43;99885.34;;;12.88;100.00
49723;BME280;43484;43.608;1.458;2023-05-10T01:35:32;99870.03;;;12.93;100.00
49723;BME280;43484;43.608;1.458;2023-05-10T01:38:28;99875.84;;;12.84;100.00
49723;BME280;43484;43.608;1.458;2023-05-10T01:41:16;99870.63;;;12.81;100.00
49723;BME280;43484;43.608;1.458;2023-05-10T01:43:55;99860.44;;;12.86;100.00
49723;BME280;43484;43.608;1.458;2023-05-10T01:46:41;99853.38;;;12.76;100.00
49723;BME280;43484;43.608;1.458;2023-05-10T01:49:11;99851.66;;;12.76;100.00
49723;BME280;43484;43.608;1.458;2023-05-10T01:51:51;99852.47;;;12.74;100.00
49723;BME280;43484;43.608;1.458;2023-05-10T01:54:20;99845.69;;;12.77;100.00
49723;BME280;43484;43.608;1.458;2023-05-10T01:56:52;99852.59;;;12.80;100.00
49723;BME280;43484;43.608;1.458;2023-05-10T01:59:22;99858.53;;;12.76;100.00
49723;BME280;43484;43.608;1.458;2023-05-10T02:01:50;99856.84;;;12.78;100.00
49723;BME280;43484;43.608;1.458;2023-05-10T02:04:19;99856.88;;;12.79;100.00
49723;BME280;43484;43.608;1.458;2023-05-10T02:06:49;99857.66;;;12.75;100.00
49723;BME280;43484;43.608;1.458;2023-05-10T02:09:17;99861.94;;;12.76;100.00
49723;BME280;43484;43.608;1.458;2023-05-10T02:11:48;99857.59;;;12.72;100.00
49723;BME280;43484;43.608;1.458;2023-05-10T02:14:15;99857.72;;;12.80;100.00
49723;BME280;43484;43.608;1.458;2023-05-10T02:16:43;99860.97;;;12.71;100.00
49723;BME280;43484;43.608;1.458;2023-05-10T02:19:11;99864.44;;;12.73;100.00
49723;BME280;43484;43.608;1.458;2023-05-10T02:21:39;99866.25;;;12.76;100.00
49723;BME280;43484;43.608;1.458;2023-05-10T02:24:07;99854.97;;;12.69;100.00
49723;BME280;43484;43.608;1.458;2023-05-10T02:26:35;99856.81;;;12.76;100.00
49723;BME280;43484;43.608;1.458;2023-05-10T02:29:03;99849.84;;;12.71;100.00
49723;BME280;43484;43.608;1.458;2023-05-10T02:31:32;99860.22;;;12.75;100.00
49723;BME280;43484;43.608;1.458;2023-05-10T02:34:00;99862.78;;;12.75;100.00
49723;BME280;43484;43.608;1.458;2023-05-10T02:36:28;99867.91;;;12.74;100.00
49723;BME280;43484;43.608;1.458;2023-05-10T02:38:55;99857.56;;;12.71;100.00
49723;BME280;43484;43.608;1.458;2023-05-10T02:41:23;99861.09;;;12.76;100.00
49723;BME280;43484;43.608;1.458;2023-05-10T02:43:55;99861.88;;;12.73;100.00
49723;BME280;43484;43.608;1.458;2023-05-10T02:46:23;99866.25;;;12.76;100.00
49723;BME280;43484;43.608;1.458;2023-05-10T02:48:50;99874.03;;;12.80;100.00
49723;BME280;43484;43.608;1.458;2023-05-10T02:51:18;99873.09;;;12.77;100.00
49723;BME280;43484;43.608;1.458;2023-05-10T02:53:46;99871.38;;;12.76;100.00
49723;BME280;43484;43.608;1.458;2023-05-10T02:56:21;99877.31;;;12.73;100.00
49723;BME280;43484;43.608;1.458;2023-05-10T02:58:52;99875.66;;;12.77;100.00
49723;BME280;43484;43.608;1.458;2023-05-10T03:01:19;99868.94;;;12.83;100.00
49723;BME280;43484;43.608;1.458;2023-05-10T03:03:45;99866.53;;;12.89;100.00
49723;BME280;43484;43.608;1.458;2023-05-10T03:06:12;99853.56;;;12.85;100.00
49723;BME280;43484;43.608;1.458;2023-05-10T03:08:38;99839.47;;;12.68;100.00
49723;BME280;43484;43.608;1.458;2023-05-10T03:16:32;99797.63;;;12.33;100.00
49723;BME280;43484;43.608;1.458;2023-05-10T03:19:10;99794.16;;;12.31;100.00
49723;BME280;43484;43.608;1.458;2023-05-10T03:21:41;99796.59;;;12.25;100.00
49723;BME280;43484;43.608;1.458;2023-05-10T03:24:11;99792.06;;;12.13;100.00
49723;BME280;43484;43.608;1.458;2023-05-10T03:26:38;99787.63;;;12.06;100.00
49723;BME280;43484;43.608;1.458;2023-05-10T03:29:07;99793.22;;;11.89;100.00
49723;BME280;43484;43.608;1.458;2023-05-10T03:31:34;99815.50;;;11.91;100.00
49723;BME280;43484;43.608;1.458;2023-05-10T03:34:01;99816.16;;;11.83;100.00
49723;BME280;43484;43.608;1.458;2023-05-10T03:36:27;99830.84;;;11.88;100.00
49723;BME280;43484;43.608;1.458;2023-05-10T03:38:54;99829.41;;;12.01;100.00
49723;BME280;43484;43.608;1.458;2023-05-10T03:41:21;99831.38;;;11.75;100.00
49723;BME280;43484;43.608;1.458;2023-05-10T03:43:47;99821.47;;;11.89;100.00
49723;BME280;43484;43.608;1.458;2023-05-10T03:46:14;99812.81;;;11.85;100.00
49723;BME280;43484;43.608;1.458;2023-05-10T03:48:40;99817.03;;;11.83;100.00
49723;BME280;43484;43.608;1.458;2023-05-10T03:51:07;99814.28;;;11.76;100.00
49723;BME280;43484;43.608;1.458;2023-05-10T03:53:33;99817.00;;;11.82;100.00
49723;BME280;43484;43.608;1.458;2023-05-10T03:56:00;99803.34;;;11.84;100.00
49723;BME280;43484;43.608;1.458;2023-05-10T03:58:27;99806.66;;;11.79;100.00
49723;BME280;43484;43.608;1.458;2023-05-10T04:00:53;99808.38;;;11.80;100.00
49723;BME280;43484;43.608;1.458;2023-05-10T04:03:20;99807.28;;;11.69;100.00
49723;BME280;43484;43.608;1.458;2023-05-10T04:05:47;99809.13;;;11.76;100.00
49723;BME280;43484;43.608;1.458;2023-05-10T04:08:13;99810.00;;;11.76;100.00
49723;BME280;43484;43.608;1.458;2023-05-10T04:10:42;99808.91;;;11.65;100.00
49723;BME280;43484;43.608;1.458;2023-05-10T04:13:09;99805.56;;;11.69;100.00
49723;BME280;43484;43.608;1.458;2023-05-10T04:15:36;99809.06;;;11.73;100.00
49723;BME280;43484;43.608;1.458;2023-05-10T04:18:03;99808.94;;;11.67;100.00
49723;BME280;43484;43.608;1.458;2023-05-10T04:20:33;99813.19;;;11.66;100.00
49723;BME280;43484;43.608;1.458;2023-05-10T04:23:00;99797.91;;;11.71;100.00
49723;BME280;43484;43.608;1.458;2023-05-10T04:25:26;99802.31;;;11.76;100.00
49723;BME280;43484;43.608;1.458;2023-05-10T04:27:53;99801.44;;;11.76;100.00
49723;BME280;43484;43.608;1.458;2023-05-10T04:30:20;99795.66;;;11.84;100.00
49723;BME280;43484;43.608;1.458;2023-05-10T04:32:47;99801.56;;;11.80;100.00
49723;BME280;43484;43.608;1.458;2023-05-10T04:35:13;99803.25;;;11.80;100.00
49723;BME280;43484;43.608;1.458;2023-05-10T04:37:41;99802.34;;;11.78;100.00
49723;BME280;43484;43.608;1.458;2023-05-10T04:40:07;99813.47;;;11.77;100.00
49723;BME280;43484;43.608;1.458;2023-05-10T04:42:34;99805.56;;;11.69;100.00
49723;BME280;43484;43.608;1.458;2023-05-10T04:45:01;99808.31;;;11.77;100.00
49723;BME280;43484;43.608;1.458;2023-05-10T04:47:27;99809.00;;;11.70;100.00
49723;BME280;43484;43.608;1.458;2023-05-10T04:49:54;99809.91;;;11.72;100.00
49723;BME280;43484;43.608;1.458;2023-05-10T04:52:20;99804.78;;;11.72;100.00
49723;BME280;43484;43.608;1.458;2023-05-10T04:54:47;99803.94;;;11.73;100.00
49723;BME280;43484;43.608;1.458;2023-05-10T04:57:13;99799.66;;;11.72;100.00
49723;BME280;43484;43.608;1.458;2023-05-10T04:59:40;99810.84;;;11.75;100.00
49723;BME280;43484;43.608;1.458;2023-05-10T05:02:07;99803.81;;;11.67;100.00
49723;BME280;43484;43.608;1.458;2023-05-10T05:04:33;99816.56;;;11.64;100.00
49723;BME280;43484;43.608;1.458;2023-05-10T05:07:00;99810.63;;;11.66;100.00
49723;BME280;43484;43.608;1.458;2023-05-10T05:09:26;99814.06;;;11.67;100.00
49723;BME280;43484;43.608;1.458;2023-05-10T05:11:54;99820.03;;;11.67;100.00
49723;BME280;43484;43.608;1.458;2023-05-10T05:14:20;99826.97;;;11.70;100.00
49723;BME280;43484;43.608;1.458;2023-05-10T05:16:47;99831.19;;;11.68;100.00
49723;BME280;43484;43.608;1.458;2023-05-10T05:19:14;99829.53;;;11.70;100.00
49723;BME280;43484;43.608;1.458;2023-05-10T05:21:40;99827.88;;;11.72;100.00
49723;BME280;43484;43.608;1.458;2023-05-10T05:24:08;99831.50;;;11.80;100.00
49723;BME280;43484;43.608;1.458;2023-05-10T05:26:34;99830.31;;;11.67;100.00
49723;BME280;43484;43.608;1.458;2023-05-10T05:29:01;99841.38;;;11.65;100.00
49723;BME280;43484;43.608;1.458;2023-05-10T05:31:28;99844.63;;;11.59;100.00
49723;BME280;43484;43.608;1.458;2023-05-10T05:33:55;99843.94;;;11.65;100.00
49723;BME280;43484;43.608;1.458;2023-05-10T05:36:22;99850.75;;;11.64;100.00
49723;BME280;43484;43.608;1.458;2023-05-10T05:38:49;99862.00;;;11.69;100.00
49723;BME280;43484;43.608;1.458;2023-05-10T05:41:15;99862.88;;;11.70;100.00
49723;BME280;43484;43.608;1.458;2023-05-10T05:43:42;99868.16;;;11.76;100.00
49723;BME280;43484;43.608;1.458;2023-05-10T05:46:09;99870.50;;;11.67;100.00
49723;BME280;43484;43.608;1.458;2023-05-10T05:48:35;99877.41;;;11.69;100.00
49723;BME280;43484;43.608;1.458;2023-05-10T05:51:02;99883.84;;;11.86;100.00
49723;BME280;43484;43.608;1.458;2023-05-10T05:53:32;99882.22;;;11.90;100.00
49723;BME280;43484;43.608;1.458;2023-05-10T05:55:58;99885.69;;;11.92;100.00
49723;BME280;43484;43.608;1.458;2023-05-10T05:58:25;99893.81;;;11.76;100.00
49723;BME280;43484;43.608;1.458;2023-05-10T06:00:52;99889.84;;;11.87;100.00
49723;BME280;43484;43.608;1.458;2023-05-10T06:03:19;99902.09;;;11.97;100.00
49723;BME280;43484;43.608;1.458;2023-05-10T06:05:47;99908.19;;;12.02;100.00
49723;BME280;43484;43.608;1.458;2023-05-10T06:08:14;99900.47;;;12.00;100.00
49723;BME280;43484;43.608;1.458;2023-05-10T06:10:40;99898.22;;;11.80;100.00
49723;BME280;43484;43.608;1.458;2023-05-10T06:13:07;99893.97;;;11.80;100.00
49723;BME280;43484;43.608;1.458;2023-05-10T06:15:34;99886.63;;;11.63;100.00
49723;BME280;43484;43.608;1.458;2023-05-10T06:18:01;99881.31;;;11.88;100.00
49723;BME280;43484;43.608;1.458;2023-05-10T06:20:28;99873.53;;;11.85;100.00
49723;BME280;43484;43.608;1.458;2023-05-10T06:22:54;99876.94;;;11.84;100.00
49723;BME280;43484;43.608;1.458;2023-05-10T06:25:21;99871.72;;;11.81;100.00
49723;BME280;43484;43.608;1.458;2023-05-10T06:27:48;99873.44;;;11.80;100.00
49723;BME280;43484;43.608;1.458;2023-05-10T06:30:19;99870.72;;;11.76;100.00
49723;BME280;43484;43.608;1.458;2023-05-10T06:32:46;99872.44;;;11.75;100.00
49723;BME280;43484;43.608;1.458;2023-05-10T06:35:13;99874.09;;;11.73;100.00
49723;BME280;43484;43.608;1.458;2023-05-10T06:37:40;99874.03;;;11.70;100.00
49723;BME280;43484;43.608;1.458;2023-05-10T06:40:06;99883.72;;;11.82;100.00
49723;BME280;43484;43.608;1.458;2023-05-10T06:42:33;99878.75;;;11.88;100.00
49723;BME280;43484;43.608;1.458;2023-05-10T06:45:00;99889.19;;;11.94;100.00
49723;BME280;43484;43.608;1.458;2023-05-10T06:47:27;99884.31;;;12.06;100.00
49723;BME280;43484;43.608;1.458;2023-05-10T06:49:53;99892.19;;;12.12;100.00
49723;BME280;43484;43.608;1.458;2023-05-10T06:52:20;99895.59;;;12.12;100.00
49723;BME280;43484;43.608;1.458;2023-05-10T06:54:47;99902.66;;;12.21;100.00
49723;BME280;43484;43.608;1.458;2023-05-10T06:57:13;99922.41;;;12.23;100.00
49723;BME280;43484;43.608;1.458;2023-05-10T06:59:56;99935.44;;;12.31;100.00
49723;BME280;43484;43.608;1.458;2023-05-10T07:02:22;99948.22;;;12.28;100.00
49723;BME280;43484;43.608;1.458;2023-05-10T07:04:49;99956.75;;;12.27;100.00
49723;BME280;43484;43.608;1.458;2023-05-10T07:07:18;99964.63;;;12.34;100.00
49723;BME280;43484;43.608;1.458;2023-05-10T07:09:45;99985.44;;;12.45;100.00
49723;BME280;43484;43.608;1.458;2023-05-10T07:12:12;99989.97;;;12.55;100.00
49723;BME280;43484;43.608;1.458;2023-05-10T07:14:41;100018.34;;;12.59;100.00
49723;BME280;43484;43.608;1.458;2023-05-10T07:17:08;100032.25;;;12.68;100.00
49723;BME280;43484;43.608;1.458;2023-05-10T07:19:35;100053.09;;;12.80;100.00
49723;BME280;43484;43.608;1.458;2023-05-10T07:22:02;100076.84;;;13.02;100.00
49723;BME280;43484;43.608;1.458;2023-05-10T07:24:29;100098.38;;;13.07;100.00
49723;BME280;43484;43.608;1.458;2023-05-10T07:26:56;100123.00;;;12.98;100.00
49723;BME280;43484;43.608;1.458;2023-05-10T07:29:22;100141.41;;;12.80;100.00
49723;BME280;43484;43.608;1.458;2023-05-10T07:31:49;100151.78;;;12.85;100.00
49723;BME280;43484;43.608;1.458;2023-05-10T07:34:15;100163.66;;;12.80;100.00
49723;BME280;43484;43.608;1.458;2023-05-10T07:36:42;100160.22;;;13.12;100.00
49723;BME280;43484;43.608;1.458;2023-05-10T07:39:09;100171.22;;;13.06;100.00
49723;BME280;43484;43.608;1.458;2023-05-10T07:41:39;100186.31;;;12.93;100.00
49723;BME280;43484;43.608;1.458;2023-05-10T07:44:06;100175.69;;;13.13;100.00
49723;BME280;43484;43.608;1.458;2023-05-10T07:46:32;100187.69;;;13.13;100.00
49723;BME280;43484;43.608;1.458;2023-05-10T07:48:59;100190.31;;;13.14;100.00
49723;BME280;43484;43.608;1.458;2023-05-10T07:51:26;100209.28;;;13.19;100.00
49723;BME280;43484;43.608;1.458;2023-05-10T07:53:52;100240.06;;;13.16;100.00
49723;BME280;43484;43.608;1.458;2023-05-10T07:56:24;100242.53;;;13.12;100.00
49723;BME280;43484;43.608;1.458;2023-05-10T07:58:54;100236.63;;;13.50;100.00
49723;BME280;43484;43.608;1.458;2023-05-10T08:01:20;100264.66;;;13.38;100.00
49723;BME280;43484;43.608;1.458;2023-05-10T08:03:47;100281.78;;;13.37;100.00
49723;BME280;43484;43.608;1.458;2023-05-10T08:06:14;100291.06;;;13.31;100.00
49723;BME280;43484;43.608;1.458;2023-05-10T08:08:41;100294.22;;;13.21;100.00
49723;BME280;43484;43.608;1.458;2023-05-10T08:11:08;100300.47;;;13.30;100.00
49723;BME280;43484;43.608;1.458;2023-05-10T08:13:35;100306.94;;;13.47;100.00
49723;BME280;43484;43.608;1.458;2023-05-10T08:16:01;100321.13;;;13.66;100.00
49723;BME280;43484;43.608;1.458;2023-05-10T08:18:28;100339.53;;;13.81;100.00
49723;BME280;43484;43.608;1.458;2023-05-10T08:20:55;100354.47;;;13.96;100.00
49723;BME280;43484;43.608;1.458;2023-05-10T08:23:21;100356.09;;;13.92;100.00
49723;BME280;43484;43.608;1.458;2023-05-10T08:25:48;100364.59;;;13.88;100.00
49723;BME280;43484;43.608;1.458;2023-05-10T08:28:14;100368.38;;;13.68;100.00
49723;BME280;43484;43.608;1.458;2023-05-10T08:30:41;100359.84;;;13.70;100.00
49723;BME280;43484;43.608;1.458;2023-05-10T08:33:08;100366.56;;;13.64;100.00
49723;BME280;43484;43.608;1.458;2023-05-10T08:35:34;100367.03;;;13.83;100.00
49723;BME280;43484;43.608;1.458;2023-05-10T08:38:01;100380.91;;;13.88;100.00
49723;BME280;43484;43.608;1.458;2023-05-10T08:40:28;100393.16;;;13.99;100.00
49723;BME280;43484;43.608;1.458;2023-05-10T08:42:58;100386.41;;;14.02;100.00
49723;BME280;43484;43.608;1.458;2023-05-10T08:45:33;100387.06;;;14.28;100.00
49723;BME280;43484;43.608;1.458;2023-05-10T08:48:01;100385.88;;;14.51;100.00
49723;BME280;43484;43.608;1.458;2023-05-10T08:50:29;100395.53;;;14.61;100.00
49723;BME280;43484;43.608;1.458;2023-05-10T08:52:59;100402.88;;;14.43;100.00
49723;BME280;43484;43.608;1.458;2023-05-10T08:55:29;100397.50;;;14.34;100.00
49723;BME280;43484;43.608;1.458;2023-05-10T08:57:56;100413.19;;;14.10;100.00
49723;BME280;43484;43.608;1.458;2023-05-10T09:00:23;100429.31;;;14.02;100.00
49723;BME280;43484;43.608;1.458;2023-05-10T09:02:50;100411.22;;;14.33;100.00
49723;BME280;43484;43.608;1.458;2023-05-10T09:05:16;100408.81;;;14.40;100.00
49723;BME280;43484;43.608;1.458;2023-05-10T09:07:44;100411.94;;;14.63;100.00
49723;BME280;43484;43.608;1.458;2023-05-10T09:10:11;100420.72;;;14.72;100.00
49723;BME280;43484;43.608;1.458;2023-05-10T09:12:40;100417.13;;;14.64;100.00
49723;BME280;43484;43.608;1.458;2023-05-10T09:15:09;100409.84;;;14.85;100.00
49723;BME280;43484;43.608;1.458;2023-05-10T09:17:36;100411.91;;;14.61;100.00
49723;BME280;43484;43.608;1.458;2023-05-10T09:20:04;100404.97;;;14.60;100.00
49723;BME280;43484;43.608;1.458;2023-05-10T09:22:31;100401.38;;;14.54;100.00
49723;BME280;43484;43.608;1.458;2023-05-10T09:25:07;100409.69;;;14.78;100.00
49723;BME280;43484;43.608;1.458;2023-05-10T09:27:35;100407.56;;;14.60;100.00
49723;BME280;43484;43.608;1.458;2023-05-10T09:30:03;100405.50;;;14.83;100.00
49723;BME280;43484;43.608;1.458;2023-05-10T09:32:41;100399.19;;;15.12;100.00
49723;BME280;43484;43.608;1.458;2023-05-10T09:35:12;100395.59;;;15.04;100.00
49723;BME280;43484;43.608;1.458;2023-05-10T09:37:41;100396.72;;;15.15;100.00
49723;BME280;43484;43.608;1.458;2023-05-10T09:40:15;100400.94;;;15.12;100.00
49723;BME280;43484;43.608;1.458;2023-05-10T09:42:51;100391.34;;;14.66;100.00
49723;BME280;43484;43.608;1.458;2023-05-10T09:45:18;100389.81;;;14.74;100.00
49723;BME280;43484;43.608;1.458;2023-05-10T09:47:45;100394.66;;;14.99;100.00
49723;BME280;43484;43.608;1.458;2023-05-10T09:50:12;100384.91;;;14.86;100.00
49723;BME280;43484;43.608;1.458;2023-05-10T09:52:50;100378.72;;;14.78;100.00
49723;BME280;43484;43.608;1.458;2023-05-10T09:55:19;100402.84;;;14.80;100.00
49723;BME280;43484;43.608;1.458;2023-05-10T09:57:47;100386.00;;;14.97;100.00
49723;BME280;43484;43.608;1.458;2023-05-10T10:00:18;100372.72;;;15.21;100.00
49723;BME280;43484;43.608;1.458;2023-05-10T10:02:47;100372.06;;;15.32;100.00
49723;BME280;43484;43.608;1.458;2023-05-10T10:05:14;100377.88;;;15.21;100.00
49723;BME280;43484;43.608;1.458;2023-05-10T10:07:41;100380.47;;;15.22;100.00
49723;BME280;43484;43.608;1.458;2023-05-10T10:10:08;100379.38;;;15.09;100.00
49723;BME280;43484;43.608;1.458;2023-05-10T10:12:39;100375.72;;;15.40;100.00
49723;BME280;43484;43.608;1.458;2023-05-10T10:15:08;100370.13;;;15.64;100.00
49723;BME280;43484;43.608;1.458;2023-05-10T10:17:36;100367.19;;;15.44;100.00
49723;BME280;43484;43.608;1.458;2023-05-10T10:20:05;100377.31;;;15.35;100.00
49723;BME280;43484;43.608;1.458;2023-05-10T10:22:37;100369.59;;;15.37;100.00
49723;BME280;43484;43.608;1.458;2023-05-10T10:25:04;100367.00;;;15.35;100.00
49723;BME280;43484;43.608;1.458;2023-05-10T10:28:02;100358.63;;;15.47;100.00
49723;BME280;43484;43.608;1.458;2023-05-10T10:30:29;100355.03;;;15.88;100.00
49723;BME280;43484;43.608;1.458;2023-05-10T10:36:02;100358.03;;;15.63;100.00
49723;BME280;43484;43.608;1.458;2023-05-10T10:38:57;100362.47;;;15.70;100.00
49723;BME280;43484;43.608;1.458;2023-05-10T10:41:35;100355.84;;;15.84;100.00
49723;BME280;43484;43.608;1.458;2023-05-10T10:44:35;100359.81;;;15.64;100.00
49723;BME280;43484;43.608;1.458;2023-05-10T10:49:49;100341.88;;;15.74;100.00
49723;BME280;43484;43.608;1.458;2023-05-10T10:52:21;100355.53;;;16.19;100.00
49723;BME280;43484;43.608;1.458;2023-05-10T10:55:08;100346.09;;;16.23;100.00
49723;BME280;43484;43.608;1.458;2023-05-10T10:57:44;100339.66;;;16.49;100.00
49723;BME280;43484;43.608;1.458;2023-05-10T11:00:30;100343.34;;;16.11;100.00
49723;BME280;43484;43.608;1.458;2023-05-10T11:03:10;100346.50;;;15.92;100.00
49723;BME280;43484;43.608;1.458;2023-05-10T11:05:47;100346.53;;;15.95;100.00
49723;BME280;43484;43.608;1.458;2023-05-10T11:08:29;100374.78;;;15.38;100.00
49723;BME280;43484;43.608;1.458;2023-05-10T11:13:28;100030.81;;;13.13;100.00
49723;BME280;43484;43.608;1.458;2023-05-10T11:15:59;99862.19;;;12.88;100.00
49723;BME280;43484;43.608;1.458;2023-05-10T11:18:36;99834.56;;;12.78;100.00
49723;BME280;43484;43.608;1.458;2023-05-10T11:21:03;99825.41;;;12.89;100.00
49723;BME280;43484;43.608;1.458;2023-05-10T11:23:33;99853.13;;;12.63;100.00
49723;BME280;43484;43.608;1.458;2023-05-10T11:26:13;99869.19;;;12.53;100.00
49723;BME280;43484;43.608;1.458;2023-05-10T11:28:45;99899.97;;;12.52;100.00
49723;BME280;43484;43.608;1.458;2023-05-10T11:31:18;99901.25;;;12.33;100.00
49723;BME280;43484;43.608;1.458;2023-05-10T11:33:52;99867.25;;;12.43;100.00
49723;BME280;43484;43.608;1.458;2023-05-10T11:36:27;99865.69;;;12.51;100.00
49723;BME280;43484;43.608;1.458;2023-05-10T11:38:56;99864.06;;;12.55;100.00
49723;BME280;43484;43.608;1.458;2023-05-10T11:41:23;99880.38;;;12.55;100.00
49723;BME280;43484;43.608;1.458;2023-05-10T11:43:54;99879.75;;;12.67;100.00
49723;BME280;43484;43.608;1.458;2023-05-10T11:46:24;99891.13;;;12.78;100.00
49723;BME280;43484;43.608;1.458;2023-05-10T11:48:55;99971.50;;;12.71;100.00
49723;BME280;43484;43.608;1.458;2023-05-10T11:51:24;100002.00;;;12.93;100.00
49723;BME280;43484;43.608;1.458;2023-05-10T11:53:55;99977.16;;;13.31;100.00
49723;BME280;43484;43.608;1.458;2023-05-10T11:56:22;100043.25;;;13.33;100.00
49723;BME280;43484;43.608;1.458;2023-05-10T11:58:54;100066.09;;;13.58;100.00
49723;BME280;43484;43.608;1.458;2023-05-10T12:01:23;100086.97;;;13.72;100.00
49723;BME280;43484;43.608;1.458;2023-05-10T12:03:50;100147.09;;;13.74;100.00
49723;BME280;43484;43.608;1.458;2023-05-10T12:06:21;100146.38;;;13.79;100.00
49723;BME280;43484;43.608;1.458;2023-05-10T12:08:48;100183.56;;;13.94;100.00
49723;BME280;43484;43.608;1.458;2023-05-10T12:11:19;100227.78;;;13.74;100.00
49723;BME280;43484;43.608;1.458;2023-05-10T12:13:48;100216.69;;;13.77;100.00
49723;BME280;43484;43.608;1.458;2023-05-10T12:16:18;100228.25;;;13.96;100.00
49723;BME280;43484;43.608;1.458;2023-05-10T12:18:48;100242.38;;;14.13;100.00
49723;BME280;43484;43.608;1.458;2023-05-10T12:21:15;100243.81;;;14.39;100.00
49723;BME280;43484;43.608;1.458;2023-05-10T12:23:41;100222.09;;;14.69;100.00
49723;BME280;43484;43.608;1.458;2023-05-10T12:26:09;100244.91;;;14.93;100.00
49723;BME280;43484;43.608;1.458;2023-05-10T12:28:37;100257.53;;;14.79;100.00
49723;BME280;43484;43.608;1.458;2023-05-10T12:31:05;100277.25;;;14.76;100.00
49723;BME280;43484;43.608;1.458;2023-05-10T12:33:37;100284.22;;;14.80;100.00
49723;BME280;43484;43.608;1.458;2023-05-10T12:36:05;100286.72;;;15.22;100.00
49723;BME280;43484;43.608;1.458;2023-05-10T12:41:03;100279.22;;;15.35;100.00
49723;BME280;43484;43.608;1.458;2023-05-10T12:43:30;100274.81;;;15.30;100.00
49723;BME280;43484;43.608;1.458;2023-05-10T12:45:57;100271.34;;;15.29;100.00
49723;BME280;43484;43.608;1.458;2023-05-10T12:48:23;100275.81;;;15.38;100.00
49723;BME280;43484;43.608;1.458;2023-05-10T12:50:50;100262.25;;;15.48;100.00
49723;BME280;43484;43.608;1.458;2023-05-10T12:53:16;100266.66;;;15.53;100.00
49723;BME280;43484;43.608;1.458;2023-05-10T12:55:44;100267.78;;;15.69;100.00
49723;BME280;43484;43.608;1.458;2023-05-10T12:58:10;100270.25;;;15.64;100.00
49723;BME280;43484;43.608;1.458;2023-05-10T13:00:46;100258.31;;;15.71;100.00
49723;BME280;43484;43.608;1.458;2023-05-10T13:03:13;100261.28;;;15.96;100.00
49723;BME280;43484;43.608;1.458;2023-05-10T13:05:39;100272.13;;;15.73;100.00
49723;BME280;43484;43.608;1.458;2023-05-10T13:08:06;100270.97;;;15.56;100.00
49723;BME280;43484;43.608;1.458;2023-05-10T13:10:33;100255.59;;;15.62;100.00
49723;BME280;43484;43.608;1.458;2023-05-10T13:12:59;100259.22;;;15.74;100.00
49723;BME280;43484;43.608;1.458;2023-05-10T13:15:26;100263.66;;;15.81;100.00
49723;BME280;43484;43.608;1.458;2023-05-10T13:17:53;100258.41;;;15.75;100.00